sensor_id;sensor_type;location;lat;lon;timestamp;pressure;altitude;pressure_sealevel;temperature;humidity
3250;BME280;1637;42.020;23.992;2023-05-11T00:01:07;93053.19;;;8.84;100.00
3250;BME280;1637;42.020;23.992;2023-05-11T00:03:34;93048.59;;;8.56;100.00
3250;BME280;1637;42.020;23.992;2023-05-11T00:06:01;93048.63;;;8.70;100.00
3250;BME280;1637;42.020;23.992;2023-05-11T00:08:30;93060.06;;;8.71;100.00
3250;BME280;1637;42.020;23.992;2023-05-11T00:10:56;93055.09;;;8.76;100.00
3250;BME280;1637;42.020;23.992;2023-05-11T00:13:25;93054.69;;;8.74;100.00
3250;BME280;1637;42.020;23.992;2023-05-11T00:15:52;93052.06;;;8.67;100.00
3250;BME280;1637;42.020;23.992;2023-05-11T00:18:19;93038.72;;;8.49;100.00
3250;BME280;1637;42.020;23.992;2023-05-11T00:20:45;93053.94;;;8.35;100.00
3250;BME280;1637;42.020;23.992;2023-05-11T00:23:12;93053.94;;;8.38;100.00
3250;BME280;1637;42.020;23.992;2023-05-11T00:25:40;93056.25;;;8.50;100.00
3250;BME280;1637;42.020;23.992;2023-05-11T00:28:07;93058.91;;;8.47;100.00
3250;BME280;1637;42.020;23.992;2023-05-11T00:30:35;93061.56;;;8.54;100.00
3250;BME280;1637;42.020;23.992;2023-05-11T00:33:01;93063.09;;;8.62;100.00
3250;BME280;1637;42.020;23.992;2023-05-11T00:35:28;93066.94;;;8.65;100.00
3250;BME280;1637;42.020;23.992;2023-05-11T00:37:56;93066.53;;;8.63;100.00
3250;BME280;1637;42.020;23.992;2023-05-11T00:40:23;93067.69;;;8.61;100.00
3250;BME280;1637;42.020;23.992;2023-05-11T00:42:51;93066.91;;;8.57;100.00
3250;BME280;1637;42.020;23.992;2023-05-11T00:45:18;93060.44;;;8.83;100.00
3250;BME280;1637;42.020;23.992;2023-05-11T00:47:45;93056.59;;;8.74;100.00
3250;BME280;1637;42.020;23.992;2023-05-11T00:50:11;93060.06;;;8.64;100.00
3250;BME280;1637;42.020;23.992;2023-05-11T00:52:40;93066.94;;;8.86;100.00
3250;BME280;1637;42.020;23.992;2023-05-11T00:55:08;93061.22;;;8.66;100.00
3250;BME280;1637;42.020;23.992;2023-05-11T00:57:36;93064.25;;;8.68;100.00
3250;BME280;1637;42.020;23.992;2023-05-11T01:00:06;93064.25;;;8.79;100.00
3250;BME280;1637;42.020;23.992;2023-05-11T01:02:33;93063.84;;;9.02;100.00
3250;BME280;1637;42.020;23.992;2023-05-11T01:05:00;93063.47;;;9.07;100.00
3250;BME280;1637;42.020;23.992;2023-05-11T01:07:31;93066.94;;;8.89;100.00
3250;BME280;1637;42.020;23.992;2023-05-11T01:10:04;93062.69;;;9.13;100.00
3250;BME280;1637;42.020;23.992;2023-05-11T01:12:37;93065.00;;;9.04;100.00
3250;BME280;1637;42.020;23.992;2023-05-11T01:15:09;93064.22;;;9.14;100.00
3250;BME280;1637;42.020;23.992;2023-05-11T01:17:45;93056.97;;;9.11;100.00
3250;BME280;1637;42.020;23.992;2023-05-11T01:20:17;93065.75;;;8.98;100.00
3250;BME280;1637;42.020;23.992;2023-05-11T01:23:06;93068.81;;;9.00;100.00
3250;BME280;1637;42.020;23.992;2023-05-11T01:25:52;93062.72;;;9.03;100.00
3250;BME280;1637;42.020;23.992;2023-05-11T01:28:34;93065.75;;;9.08;100.00
3250;BME280;1637;42.020;23.992;2023-05-11T01:31:09;93054.31;;;8.97;100.00
3250;BME280;1637;42.020;23.992;2023-05-11T01:33:53;93063.47;;;8.82;100.00
3250;BME280;1637;42.020;23.992;2023-05-11T01:36:24;93059.66;;;8.79;100.00
3250;BME280;1637;42.020;23.992;2023-05-11T01:38:54;93059.66;;;8.76;100.00
3250;BME280;1637;42.020;23.992;2023-05-11T01:41:26;93058.53;;;8.70;100.00
3250;BME280;1637;42.020;23.992;2023-05-11T01:43:56;93059.69;;;8.86;100.00
3250;BME280;1637;42.020;23.992;2023-05-11T01:46:26;93065.41;;;8.81;100.00
3250;BME280;1637;42.020;23.992;2023-05-11T01:48:55;93065.00;;;8.86;100.00
3250;BME280;1637;42.020;23.992;2023-05-11T01:51:25;93062.72;;;8.81;100.00
3250;BME280;1637;42.020;23.992;2023-05-11T01:53:52;93063.09;;;8.76;100.00
3250;BME280;1637;42.020;23.992;2023-05-11T01:56:21;93057.00;;;8.86;100.00
3250;BME280;1637;42.020;23.992;2023-05-11T01:58:49;93060.06;;;8.71;100.00
3250;BME280;1637;42.020;23.992;2023-05-11T02:01:16;93055.47;;;8.64;100.00
3250;BME280;1637;42.020;23.992;2023-05-11T02:03:45;93059.69;;;8.61;100.00
3250;BME280;1637;42.020;23.992;2023-05-11T02:06:14;93057.00;;;8.69;100.00
3250;BME280;1637;42.020;23.992;2023-05-11T02:08:44;93061.19;;;8.48;100.00
3250;BME280;1637;42.020;23.992;2023-05-11T02:11:12;93048.25;;;8.50;100.00
3250;BME280;1637;42.020;23.992;2023-05-11T02:13:41;93063.09;;;8.55;100.00
3250;BME280;1637;42.020;23.992;2023-05-11T02:16:09;93063.09;;;8.62;100.00
3250;BME280;1637;42.020;23.992;2023-05-11T02:18:39;93054.34;;;8.65;100.00
3250;BME280;1637;42.020;23.992;2023-05-11T02:21:08;93047.88;;;8.70;100.00
3250;BME280;1637;42.020;23.992;2023-05-11T02:23:37;93045.19;;;8.63;100.00
3250;BME280;1637;42.020;23.992;2023-05-11T02:26:05;93043.25;;;8.52;100.00
3250;BME280;1637;42.020;23.992;2023-05-11T02:28:33;93047.09;;;8.48;100.00
3250;BME280;1637;42.020;23.992;2023-05-11T02:31:04;93040.19;;;8.25;100.00
3250;BME280;1637;42.020;23.992;2023-05-11T02:33:38;93039.06;;;8.34;100.00
3250;BME280;1637;42.020;23.992;2023-05-11T02:36:08;93039.47;;;8.50;100.00
3250;BME280;1637;42.020;23.992;2023-05-11T02:38:37;93036.75;;;8.32;100.00
3250;BME280;1637;42.020;23.992;2023-05-11T02:41:08;93039.44;;;8.36;100.00
3250;BME280;1637;42.020;23.992;2023-05-11T02:43:40;93043.28;;;8.42;100.00
3250;BME280;1637;42.020;23.992;2023-05-11T02:46:13;93044.78;;;8.57;100.00
3250;BME280;1637;42.020;23.992;2023-05-11T02:48:43;93040.59;;;8.59;100.00
3250;BME280;1637;42.020;23.992;2023-05-11T02:51:15;93039.47;;;8.71;100.00
3250;BME280;1637;42.020;23.992;2023-05-11T02:53:43;93039.47;;;8.64;100.00
3250;BME280;1637;42.020;23.992;2023-05-11T02:56:12;93038.31;;;8.40;100.00
3250;BME280;1637;42.020;23.992;2023-05-11T02:58:39;93037.16;;;8.41;100.00
3250;BME280;1637;42.020;23.992;2023-05-11T03:01:06;93041.72;;;8.34;100.00
3250;BME280;1637;42.020;23.992;2023-05-11T03:03:33;93042.88;;;8.36;100.00
3250;BME280;1637;42.020;23.992;2023-05-11T03:06:00;93037.47;;;8.15;100.00
3250;BME280;1637;42.020;23.992;2023-05-11T03:08:28;93046.63;;;8.17;100.00
3250;BME280;1637;42.020;23.992;2023-05-11T03:10:56;93044.75;;;8.21;100.00
3250;BME280;1637;42.020;23.992;2023-05-11T03:13:24;93036.38;;;8.26;100.00
3250;BME280;1637;42.020;23.992;2023-05-11T03:15:53;93041.31;;;8.10;100.00
3250;BME280;1637;42.020;23.992;2023-05-11T03:18:21;93057.66;;;7.98;100.00
3250;BME280;1637;42.020;23.992;2023-05-11T03:20:49;93042.06;;;8.14;100.00
3250;BME280;1637;42.020;23.992;2023-05-11T03:23:16;93039.34;;;7.86;100.00
3250;BME280;1637;42.020;23.992;2023-05-11T03:25:45;93037.44;;;7.97;100.00
3250;BME280;1637;42.020;23.992;2023-05-11T03:28:14;93038.19;;;7.87;100.00
3250;BME280;1637;42.020;23.992;2023-05-11T03:30:43;93039.72;;;7.95;100.00
3250;BME280;1637;42.020;23.992;2023-05-11T03:33:11;93045.09;;;8.02;100.00
3250;BME280;1637;42.020;23.992;2023-05-11T03:35:41;93050.38;;;7.84;100.00
3250;BME280;1637;42.020;23.992;2023-05-11T03:38:10;93043.78;;;7.53;100.00
3250;BME280;1637;42.020;23.992;2023-05-11T03:40:39;93052.53;;;7.47;100.00
3250;BME280;1637;42.020;23.992;2023-05-11T03:43:10;93055.94;;;7.44;100.00
3250;BME280;1637;42.020;23.992;2023-05-11T03:45:38;93047.13;;;7.36;100.00
3250;BME280;1637;42.020;23.992;2023-05-11T03:48:07;93054.09;;;7.58;100.00
3250;BME280;1637;42.020;23.992;2023-05-11T03:50:37;93042.13;;;7.20;100.00
3250;BME280;1637;42.020;23.992;2023-05-11T03:53:04;93046.69;;;7.20;100.00
3250;BME280;1637;42.020;23.992;2023-05-11T03:55:31;93050.13;;;7.28;100.00
3250;BME280;1637;42.020;23.992;2023-05-11T03:57:58;93053.59;;;7.35;100.00
3250;BME280;1637;42.020;23.992;2023-05-11T04:00:27;93061.25;;;7.40;100.00
3250;BME280;1637;42.020;23.992;2023-05-11T04:02:55;93056.31;;;7.42;100.00
3250;BME280;1637;42.020;23.992;2023-05-11T04:05:21;93060.56;;;7.57;100.00
3250;BME280;1637;42.020;23.992;2023-05-11T04:07:49;93063.53;;;7.38;100.00
3250;BME280;1637;42.020;23.992;2023-05-11T04:10:16;93064.25;;;7.32;100.00
3250;BME280;1637;42.020;23.992;2023-05-11T04:12:42;93065.69;;;7.15;100.00
3250;BME280;1637;42.020;23.992;2023-05-11T04:15:10;93058.69;;;6.93;100.00
3250;BME280;1637;42.020;23.992;2023-05-11T04:17:38;93062.19;;;7.07;100.00
3250;BME280;1637;42.020;23.992;2023-05-11T04:20:06;93065.56;;;6.97;100.00
3250;BME280;1637;42.020;23.992;2023-05-11T04:22:33;93071.19;;;6.81;100.00
3250;BME280;1637;42.020;23.992;2023-05-11T04:25:00;93070.81;;;6.86;100.00
3250;BME280;1637;42.020;23.992;2023-05-11T04:27:27;93066.81;;;6.59;100.00
3250;BME280;1637;42.020;23.992;2023-05-11T04:29:57;93065.00;;;6.70;100.00
3250;BME280;1637;42.020;23.992;2023-05-11T04:32:24;93066.38;;;7.01;100.00
3250;BME280;1637;42.020;23.992;2023-05-11T04:34:54;93062.47;;;6.84;100.00
3250;BME280;1637;42.020;23.992;2023-05-11T04:37:20;93070.72;;;6.72;100.00
3250;BME280;1637;42.020;23.992;2023-05-11T04:39:47;93072.59;;;6.68;100.00
3250;BME280;1637;42.020;23.992;2023-05-11T04:42:14;93077.09;;;8.02;100.00
3250;BME280;1637;42.020;23.992;2023-05-11T04:44:41;93080.25;;;8.54;100.00
3250;BME280;1637;42.020;23.992;2023-05-11T04:47:08;93085.25;;;8.84;100.00
3250;BME280;1637;42.020;23.992;2023-05-11T04:49:34;93090.91;;;8.40;100.00
3250;BME280;1637;42.020;23.992;2023-05-11T04:52:03;93085.44;;;7.90;100.00
3250;BME280;1637;42.020;23.992;2023-05-11T04:54:30;93089.88;;;7.57;100.00
3250;BME280;1637;42.020;23.992;2023-05-11T04:56:56;93037.94;;;7.23;100.00
3250;BME280;1637;42.020;23.992;2023-05-11T04:59:23;93093.84;;;7.16;100.00
3250;BME280;1637;42.020;23.992;2023-05-11T05:01:50;93097.97;;;7.10;100.00
3250;BME280;1637;42.020;23.992;2023-05-11T05:04:17;93099.88;;;7.09;100.00
3250;BME280;1637;42.020;23.992;2023-05-11T05:06:44;93096.97;;;7.25;100.00
3250;BME280;1637;42.020;23.992;2023-05-11T05:09:12;93098.00;;;7.13;100.00
3250;BME280;1637;42.020;23.992;2023-05-11T05:11:39;93096.31;;;6.87;100.00
3250;BME280;1637;42.020;23.992;2023-05-11T05:14:06;93093.78;;;7.05;100.00
3250;BME280;1637;42.020;23.992;2023-05-11T05:16:33;93093.59;;;6.80;100.00
3250;BME280;1637;42.020;23.992;2023-05-11T05:19:00;93095.16;;;6.85;100.00
3250;BME280;1637;42.020;23.992;2023-05-11T05:21:26;93100.44;;;6.78;100.00
3250;BME280;1637;42.020;23.992;2023-05-11T05:23:53;93101.00;;;7.05;100.00
3250;BME280;1637;42.020;23.992;2023-05-11T05:26:21;93100.59;;;6.99;100.00
3250;BME280;1637;42.020;23.992;2023-05-11T05:28:48;93118.50;;;7.02;100.00
3250;BME280;1637;42.020;23.992;2023-05-11T05:31:15;93116.25;;;7.11;100.00
3250;BME280;1637;42.020;23.992;2023-05-11T05:33:42;93115.94;;;7.20;100.00
3250;BME280;1637;42.020;23.992;2023-05-11T05:36:09;93118.56;;;7.13;100.00
3250;BME280;1637;42.020;23.992;2023-05-11T05:38:36;93116.59;;;7.03;100.00
3250;BME280;1637;42.020;23.992;2023-05-11T05:41:03;93119.66;;;7.08;100.00
3250;BME280;1637;42.020;23.992;2023-05-11T05:43:31;93119.41;;;7.28;100.00
3250;BME280;1637;42.020;23.992;2023-05-11T05:45:58;93112.88;;;7.18;100.00
3250;BME280;1637;42.020;23.992;2023-05-11T05:48:24;93126.25;;;7.29;100.00
3250;BME280;1637;42.020;23.992;2023-05-11T05:50:51;93126.88;;;7.66;100.00
3250;BME280;1637;42.020;23.992;2023-05-11T05:53:18;93130.66;;;7.62;100.00
3250;BME280;1637;42.020;23.992;2023-05-11T05:55:45;93138.28;;;7.63;100.00
3250;BME280;1637;42.020;23.992;2023-05-11T05:58:11;93142.09;;;7.66;100.00
3250;BME280;1637;42.020;23.992;2023-05-11T06:00:40;93138.28;;;7.63;100.00
3250;BME280;1637;42.020;23.992;2023-05-11T06:03:07;93145.94;;;7.68;100.00
3250;BME280;1637;42.020;23.992;2023-05-11T06:05:33;93143.94;;;7.54;100.00
3250;BME280;1637;42.020;23.992;2023-05-11T06:08:00;93144.69;;;7.55;100.00
3250;BME280;1637;42.020;23.992;2023-05-11T06:10:28;93143.53;;;7.52;100.00
3250;BME280;1637;42.020;23.992;2023-05-11T06:12:54;93143.97;;;7.62;100.00
3250;BME280;1637;42.020;23.992;2023-05-11T06:15:21;93155.91;;;7.85;100.00
3250;BME280;1637;42.020;23.992;2023-05-11T06:17:49;93139.16;;;7.88;100.00
3250;BME280;1637;42.020;23.992;2023-05-11T06:20:16;93143.00;;;7.98;100.00
3250;BME280;1637;42.020;23.992;2023-05-11T06:22:43;93148.66;;;7.86;100.00
3250;BME280;1637;42.020;23.992;2023-05-11T06:25:10;93142.06;;;7.58;100.00
3250;BME280;1637;42.020;23.992;2023-05-11T06:27:37;93146.09;;;8.14;100.00
3250;BME280;1637;42.020;23.992;2023-05-11T06:30:05;93141.13;;;8.06;100.00
3250;BME280;1637;42.020;23.992;2023-05-11T06:32:32;93132.31;;;7.94;100.00
3250;BME280;1637;42.020;23.992;2023-05-11T06:35:00;93135.72;;;7.84;100.00
3250;BME280;1637;42.020;23.992;2023-05-11T06:37:28;93136.22;;;8.22;100.00
3250;BME280;1637;42.020;23.992;2023-05-11T06:39:55;93141.16;;;8.16;100.00
3250;BME280;1637;42.020;23.992;2023-05-11T06:42:21;93139.28;;;8.27;100.00
3250;BME280;1637;42.020;23.992;2023-05-11T06:44:48;93138.22;;;8.43;100.00
3250;BME280;1637;42.020;23.992;2023-05-11T06:47:15;93131.28;;;8.24;100.00
3250;BME280;1637;42.020;23.992;2023-05-11T06:49:42;93136.31;;;8.43;100.00
3250;BME280;1637;42.020;23.992;2023-05-11T06:52:10;93136.31;;;8.43;100.00
3250;BME280;1637;42.020;23.992;2023-05-11T06:54:37;93142.44;;;8.58;100.00
3250;BME280;1637;42.020;23.992;2023-05-11T06:57:04;93135.19;;;8.48;100.00
3250;BME280;1637;42.020;23.992;2023-05-11T06:59:32;93131.69;;;8.33;100.00
3250;BME280;1637;42.020;23.992;2023-05-11T07:01:58;93137.06;;;8.40;100.00
3250;BME280;1637;42.020;23.992;2023-05-11T07:04:25;93138.63;;;8.48;100.00
3250;BME280;1637;42.020;23.992;2023-05-11T07:06:54;93137.09;;;8.51;100.00
3250;BME280;1637;42.020;23.992;2023-05-11T07:09:22;93140.13;;;8.53;100.00
3250;BME280;1637;42.020;23.992;2023-05-11T07:11:49;93142.03;;;8.45;100.00
3250;BME280;1637;42.020;23.992;2023-05-11T07:14:17;93139.00;;;8.57;100.00
3250;BME280;1637;42.020;23.992;2023-05-11T07:16:44;93141.63;;;8.40;100.00
3250;BME280;1637;42.020;23.992;2023-05-11T07:19:11;93143.53;;;8.36;100.00
3250;BME280;1637;42.020;23.992;2023-05-11T07:21:37;93125.19;;;8.31;100.00
3250;BME280;1637;42.020;23.992;2023-05-11T07:24:05;93148.91;;;8.57;100.00
3250;BME280;1637;42.020;23.992;2023-05-11T07:26:33;93144.72;;;8.56;100.00
3250;BME280;1637;42.020;23.992;2023-05-11T07:29:00;93145.09;;;8.47;100.00
3250;BME280;1637;42.020;23.992;2023-05-11T07:31:27;93153.84;;;8.41;100.00
3250;BME280;1637;42.020;23.992;2023-05-11T07:33:54;93155.44;;;8.81;100.00
3250;BME280;1637;42.020;23.992;2023-05-11T07:36:24;93114.94;;;8.40;100.00
3250;BME280;1637;42.020;23.992;2023-05-11T07:38:51;93150.09;;;8.95;100.00
3250;BME280;1637;42.020;23.992;2023-05-11T07:41:18;93151.63;;;8.85;100.00
3250;BME280;1637;42.020;23.992;2023-05-11T07:43:47;93147.03;;;8.82;100.00
3250;BME280;1637;42.020;23.992;2023-05-11T07:46:14;93144.38;;;8.89;100.00
3250;BME280;1637;42.020;23.992;2023-05-11T07:48:41;93141.72;;;8.89;100.00
3250;BME280;1637;42.020;23.992;2023-05-11T07:51:08;93143.22;;;8.80;100.00
3250;BME280;1637;42.020;23.992;2023-05-11T07:53:35;93137.50;;;9.03;100.00
3250;BME280;1637;42.020;23.992;2023-05-11T07:56:02;93139.44;;;8.91;100.00
3250;BME280;1637;42.020;23.992;2023-05-11T07:58:29;93143.22;;;8.98;100.00
3250;BME280;1637;42.020;23.992;2023-05-11T08:00:58;93144.00;;;8.94;100.00
3250;BME280;1637;42.020;23.992;2023-05-11T08:03:25;93147.81;;;9.22;100.00
3250;BME280;1637;42.020;23.992;2023-05-11T08:05:52;93151.63;;;9.28;100.00
3250;BME280;1637;42.020;23.992;2023-05-11T08:08:18;93141.69;;;9.39;100.00
3250;BME280;1637;42.020;23.992;2023-05-11T08:10:45;93150.44;;;9.64;100.00
3250;BME280;1637;42.020;23.992;2023-05-11T08:13:12;93152.00;;;9.48;100.00
3250;BME280;1637;42.020;23.992;2023-05-11T08:15:39;93151.56;;;9.60;100.00
3250;BME280;1637;42.020;23.992;2023-05-11T08:18:07;93155.81;;;9.50;100.00
3250;BME280;1637;42.020;23.992;2023-05-11T08:20:34;93159.63;;;9.42;100.00
3250;BME280;1637;42.020;23.992;2023-05-11T08:23:01;93157.75;;;9.32;100.00
3250;BME280;1637;42.020;23.992;2023-05-11T08:25:28;93166.13;;;9.41;100.00
3250;BME280;1637;42.020;23.992;2023-05-11T08:27:55;93167.66;;;9.53;100.00
3250;BME280;1637;42.020;23.992;2023-05-11T08:30:22;93164.56;;;9.69;100.00
3250;BME280;1637;42.020;23.992;2023-05-11T08:32:48;93158.91;;;9.10;100.00
3250;BME280;1637;42.020;23.992;2023-05-11T08:35:17;93165.00;;;9.28;100.00
3250;BME280;1637;42.020;23.992;2023-05-11T08:37:44;93172.63;;;9.26;100.00
3250;BME280;1637;42.020;23.992;2023-05-11T08:40:11;93160.78;;;9.38;100.00
3250;BME280;1637;42.020;23.992;2023-05-11T08:42:39;93163.84;;;9.50;100.00
3250;BME280;1637;42.020;23.992;2023-05-11T08:45:07;93159.97;;;9.69;100.00
3250;BME280;1637;42.020;23.992;2023-05-11T08:47:36;93161.84;;;9.79;100.00
3250;BME280;1637;42.020;23.992;2023-05-11T08:50:03;93159.19;;;9.76;100.00
3250;BME280;1637;42.020;23.992;2023-05-11T08:52:32;93153.50;;;9.59;100.00
3250;BME280;1637;42.020;23.992;2023-05-11T08:54:59;93148.94;;;9.49;100.00
3250;BME280;1637;42.020;23.992;2023-05-11T08:57:28;93155.44;;;9.23;100.00
3250;BME280;1637;42.020;23.992;2023-05-11T08:59:57;93134.47;;;9.01;100.00
3250;BME280;1637;42.020;23.992;2023-05-11T09:02:25;93152.00;;;9.16;100.00
3250;BME280;1637;42.020;23.992;2023-05-11T09:04:52;93143.22;;;9.22;100.00
3250;BME280;1637;42.020;23.992;2023-05-11T09:07:20;93137.50;;;9.06;100.00
3250;BME280;1637;42.020;23.992;2023-05-11T09:09:51;93137.50;;;9.35;100.00
3250;BME280;1637;42.020;23.992;2023-05-11T09:12:18;93135.16;;;9.58;100.00
3250;BME280;1637;42.020;23.992;2023-05-11T09:14:46;93140.03;;;9.95;100.00
3250;BME280;1637;42.020;23.992;2023-05-11T09:17:12;93136.22;;;9.89;100.00
3250;BME280;1637;42.020;23.992;2023-05-11T09:19:56;93141.56;;;9.89;100.00
3250;BME280;1637;42.020;23.992;2023-05-11T09:22:23;93138.09;;;9.99;100.00
3250;BME280;1637;42.020;23.992;2023-05-11T09:24:51;93125.44;;;10.07;100.00
3250;BME280;1637;42.020;23.992;2023-05-11T09:27:18;93127.75;;;10.05;100.00
3250;BME280;1637;42.020;23.992;2023-05-11T09:29:45;93130.50;;;9.90;100.00
3250;BME280;1637;42.020;23.992;2023-05-11T09:32:12;93130.94;;;9.68;100.00
3250;BME280;1637;42.020;23.992;2023-05-11T09:34:41;93137.81;;;9.69;100.00
3250;BME280;1637;42.020;23.992;2023-05-11T09:37:15;93140.09;;;9.67;100.00
3250;BME280;1637;42.020;23.992;2023-05-11T09:39:42;93144.00;;;9.34;100.00
3250;BME280;1637;42.020;23.992;2023-05-11T09:42:14;93148.56;;;9.29;100.00
3250;BME280;1637;42.020;23.992;2023-05-11T09:44:42;93121.09;;;9.25;100.00
3250;BME280;1637;42.020;23.992;2023-05-11T09:47:10;93141.25;;;9.62;100.00
3250;BME280;1637;42.020;23.992;2023-05-11T09:49:38;93139.72;;;9.72;100.00
3250;BME280;1637;42.020;23.992;2023-05-11T09:52:08;93130.94;;;9.75;100.00
3250;BME280;1637;42.020;23.992;2023-05-11T09:54:40;93135.84;;;9.90;100.00
3250;BME280;1637;42.020;23.992;2023-05-11T09:57:22;93161.84;;;9.90;100.00
3250;BME280;1637;42.020;23.992;2023-05-11T09:59:50;93132.47;;;9.76;100.00
3250;BME280;1637;42.020;23.992;2023-05-11T10:02:19;93130.81;;;10.07;100.00
3250;BME280;1637;42.020;23.992;2023-05-11T10:04:47;93127.38;;;10.06;100.00
3250;BME280;1637;42.020;23.992;2023-05-11T10:07:28;93124.69;;;10.10;100.00
3250;BME280;1637;42.020;23.992;2023-05-11T10:09:56;93150.75;;;9.95;100.00
3250;BME280;1637;42.020;23.992;2023-05-11T10:12:25;93127.69;;;10.26;100.00
3250;BME280;1637;42.020;23.992;2023-05-11T10:14:54;93133.03;;;10.26;100.00
3250;BME280;1637;42.020;23.992;2023-05-11T10:17:22;93129.13;;;10.45;100.00
3250;BME280;1637;42.020;23.992;2023-05-11T10:19:49;93126.03;;;10.50;100.00
3250;BME280;1637;42.020;23.992;2023-05-11T10:22:17;93120.72;;;10.43;100.00
3250;BME280;1637;42.020;23.992;2023-05-11T10:24:44;93116.13;;;10.43;100.00
3250;BME280;1637;42.020;23.992;2023-05-11T10:27:12;93115.44;;;10.28;100.00
3250;BME280;1637;42.020;23.992;2023-05-11T10:29:41;93112.00;;;10.31;100.00
3250;BME280;1637;42.020;23.992;2023-05-11T10:32:09;93117.00;;;10.15;100.00
3250;BME280;1637;42.020;23.992;2023-05-11T10:34:37;93119.25;;;10.31;100.00
3250;BME280;1637;42.020;23.992;2023-05-11T10:37:05;93123.09;;;10.26;100.00
3250;BME280;1637;42.020;23.992;2023-05-11T10:39:32;93114.66;;;10.31;100.00
3250;BME280;1637;42.020;23.992;2023-05-11T10:42:24;93112.38;;;10.33;100.00
3250;BME280;1637;42.020;23.992;2023-05-11T10:45:09;93117.22;;;10.53;100.00
3250;BME280;1637;42.020;23.992;2023-05-11T10:50:50;93117.59;;;10.58;100.00
3250;BME280;1637;42.020;23.992;2023-05-11T10:53:40;93120.00;;;10.39;100.00
3250;BME280;1637;42.020;23.992;2023-05-11T10:59:23;93116.25;;;10.18;100.00
3250;BME280;1637;42.020;23.992;2023-05-11T11:01:56;93110.09;;;10.25;100.00
3250;BME280;1637;42.020;23.992;2023-05-11T11:04:40;93112.75;;;10.36;100.00
3250;BME280;1637;42.020;23.992;2023-05-11T11:07:08;93109.97;;;10.50;100.00
3250;BME280;1637;42.020;23.992;2023-05-11T11:09:55;93103.19;;;10.35;100.00
3250;BME280;1637;42.020;23.992;2023-05-11T11:12:25;93101.69;;;10.23;100.00
3250;BME280;1637;42.020;23.992;2023-05-11T11:14:53;93105.16;;;10.20;100.00
3250;BME280;1637;42.020;23.992;2023-05-11T11:17:22;93101.69;;;10.23;100.00
3250;BME280;1637;42.020;23.992;2023-05-11T11:19:51;93086.06;;;10.07;100.00
3250;BME280;1637;42.020;23.992;2023-05-11T11:22:43;93105.00;;;10.52;100.00
3250;BME280;1637;42.020;23.992;2023-05-11T11:25:11;93101.56;;;10.44;100.00
3250;BME280;1637;42.020;23.992;2023-05-11T11:27:57;93096.66;;;10.39;100.00
3250;BME280;1637;42.020;23.992;2023-05-11T11:30:26;93094.75;;;10.36;100.00
3250;BME280;1637;42.020;23.992;2023-05-11T11:33:31;93089.78;;;10.38;100.00
3250;BME280;1637;42.020;23.992;2023-05-11T11:36:01;93099.00;;;10.26;100.00
3250;BME280;1637;42.020;23.992;2023-05-11T11:38:29;93097.16;;;10.13;100.00
3250;BME280;1637;42.020;23.992;2023-05-11T11:40:57;93089.00;;;10.38;100.00
3250;BME280;1637;42.020;23.992;2023-05-11T11:43:28;93077.16;;;10.35;100.00
3250;BME280;1637;42.020;23.992;2023-05-11T11:46:24;93087.91;;;10.31;100.00
3250;BME280;1637;42.020;23.992;2023-05-11T11:49:05;93087.56;;;10.19;100.00
3250;BME280;1637;42.020;23.992;2023-05-11T11:51:32;93074.59;;;10.10;100.00
3250;BME280;1637;42.020;23.992;2023-05-11T11:54:01;93086.41;;;10.20;100.00
3250;BME280;1637;42.020;23.992;2023-05-11T11:56:41;93089.81;;;10.27;100.00
3250;BME280;1637;42.020;23.992;2023-05-11T11:59:12;93094.94;;;9.90;100.00
3250;BME280;1637;42.020;23.992;2023-05-11T12:01:42;93089.22;;;9.91;100.00
3250;BME280;1637;42.020;23.992;2023-05-11T12:04:42;93088.06;;;9.85;100.00
3250;BME280;1637;42.020;23.992;2023-05-11T12:07:12;93087.19;;;10.20;100.00
3250;BME280;1637;42.020;23.992;2023-05-11T12:09:40;93083.53;;;10.55;100.00
3250;BME280;1637;42.020;23.992;2023-05-11T12:12:10;93081.56;;;10.63;100.00
3250;BME280;1637;42.020;23.992;2023-05-11T12:14:38;93081.63;;;10.56;100.00
3250;BME280;1637;42.020;23.992;2023-05-11T12:17:07;93072.81;;;10.59;100.00
3250;BME280;1637;42.020;23.992;2023-05-11T12:19:42;93073.59;;;10.56;100.00
3250;BME280;1637;42.020;23.992;2023-05-11T12:22:10;93077.56;;;10.33;100.00
3250;BME280;1637;42.020;23.992;2023-05-11T12:24:39;93075.25;;;10.36;100.00
3250;BME280;1637;42.020;23.992;2023-05-11T12:27:06;93080.28;;;10.23;100.00
3250;BME280;1637;42.020;23.992;2023-05-11T12:29:33;93066.91;;;10.19;100.00
3250;BME280;1637;42.020;23.992;2023-05-11T12:32:00;93066.47;;;10.31;100.00
3250;BME280;1637;42.020;23.992;2023-05-11T12:34:27;93065.72;;;10.27;100.00
3250;BME280;1637;42.020;23.992;2023-05-11T12:36:55;93058.81;;;10.37;100.00
3250;BME280;1637;42.020;23.992;2023-05-11T12:39:26;93060.72;;;10.37;100.00
3250;BME280;1637;42.020;23.992;2023-05-11T12:41:54;93063.44;;;10.26;100.00
3250;BME280;1637;42.020;23.992;2023-05-11T12:44:22;93057.75;;;10.13;100.00
3250;BME280;1637;42.020;23.992;2023-05-11T12:46:50;93057.28;;;10.36;100.00
3250;BME280;1637;42.020;23.992;2023-05-11T12:49:17;93063.31;;;10.44;100.00
3250;BME280;1637;42.020;23.992;2023-05-11T12:51:47;93061.81;;;10.43;100.00
3250;BME280;1637;42.020;23.992;2023-05-11T12:54:29;93051.47;;;10.41;100.00
3250;BME280;1637;42.020;23.992;2023-05-11T12:56:56;93044.38;;;10.13;100.00
3250;BME280;1637;42.020;23.992;2023-05-11T12:59:32;93044.72;;;10.22;100.00
3250;BME280;1637;42.020;23.992;2023-05-11T13:02:07;93024.41;;;10.28;100.00
3250;BME280;1637;42.020;23.992;2023-05-11T13:04:35;93047.19;;;10.54;100.00
3250;BME280;1637;42.020;23.992;2023-05-11T13:07:02;93041.47;;;10.52;100.00
3250;BME280;1637;42.020;23.992;2023-05-11T13:09:31;93052.94;;;10.56;100.00
3250;BME280;1637;42.020;23.992;2023-05-11T13:12:17;93027.34;;;10.48;100.00
3250;BME280;1637;42.020;23.992;2023-05-11T13:14:46;93040.31;;;10.57;100.00
3250;BME280;1637;42.020;23.992;2023-05-11T13:17:14;93037.56;;;10.60;100.00
3250;BME280;1637;42.020;23.992;2023-05-11T13:19:54;93034.44;;;10.73;100.00
3250;BME280;1637;42.020;23.992;2023-05-11T13:22:21;93041.66;;;10.79;100.00
3250;BME280;1637;42.020;23.992;2023-05-11T13:25:00;93040.44;;;10.36;100.00